Time;durP1;ratioP1;P1;durP2;ratioP2;P2;SDS_P1;SDS_P2;PMS_P1;PMS_P2;Temp;Humidity;BMP_temperature;BMP_pressure;BME280_temperature;BME280_humidity;BME280_pressure;Samples;Min_cycle;Max_cycle;Signal;HPM_P1;HPM_P2
2023/12/18 00:00:05;;;;;;;50.40;34.40;;;;;;;22.46;68.27;102176.38;20862557;28;20394;-49
2023/12/18 00:10:09;;;;;;;44.90;31.35;;;;;;;22.51;68.82;102170.59;20829194;28;20569;-48
2023/12/18 00:20:12;;;;;;;39.58;27.85;;;;;;;22.48;68.55;102187.41;20827657;28;20222;-42
2023/12/18 00:30:15;;;;;;;36.97;26.00;;;;;;;22.46;68.22;102165.84;20828537;28;20196;-51
2023/12/18 00:40:17;;;;;;;33.05;23.75;;;;;;;22.49;67.24;102175.75;20832152;28;20240;-50
2023/12/18 00:50:20;;;;;;;32.70;22.10;;;;;;;22.41;67.69;102150.97;20831389;28;20603;-45
2023/12/18 01:00:22;;;;;;;28.45;20.48;;;;;;;22.38;67.16;102148.75;20822542;28;20227;-48
2023/12/18 01:10:25;;;;;;;28.50;19.40;;;;;;;22.36;67.15;102148.22;20842826;28;20224;-42
2023/12/18 01:20:28;;;;;;;24.00;17.42;;;;;;;22.35;66.69;102140.88;20843524;28;20224;-43
2023/12/18 01:30:31;;;;;;;22.02;16.48;;;;;;;22.31;67.85;102146.38;20846264;28;20196;-42
2023/12/18 01:40:33;;;;;;;21.85;15.93;;;;;;;22.31;67.25;102162.53;20855652;28;20308;-48
2023/12/18 01:50:36;;;;;;;20.85;15.43;;;;;;;22.29;67.21;102181.88;20857130;28;20291;-43
2023/12/18 02:00:37;;;;;;;19.80;13.48;;;;;;;22.28;66.99;102185.84;20827203;28;20238;-47
2023/12/18 02:10:40;;;;;;;17.05;12.55;;;;;;;22.28;67.00;102181.03;20832293;28;20523;-49
2023/12/18 02:20:42;;;;;;;17.15;12.73;;;;;;;22.26;66.04;102168.31;20849155;28;20220;-45
2023/12/18 02:30:45;;;;;;;14.85;10.48;;;;;;;22.23;67.46;102177.44;20842454;28;20209;-46
2023/12/18 02:40:47;;;;;;;15.32;10.65;;;;;;;22.26;67.22;102165.47;20842562;28;20289;-42
2023/12/18 02:50:50;;;;;;;12.90;9.52;;;;;;;22.20;67.70;102172.44;20840586;28;20208;-50
2023/12/18 03:00:52;;;;;;;12.32;9.07;;;;;;;22.16;67.07;102160.88;20837289;28;20320;-51
2023/12/18 03:10:55;;;;;;;11.90;8.20;;;;;;;22.15;67.12;102144.16;20835517;28;20323;-45
2023/12/18 03:20:57;;;;;;;11.75;8.10;;;;;;;22.17;66.37;102167.38;20834567;28;20228;-41
2023/12/18 03:31:00;;;;;;;11.40;8.18;;;;;;;22.20;65.88;102149.75;20825356;28;20549;-42
2023/12/18 03:41:01;;;;;;;12.90;9.10;;;;;;;22.67;64.04;102132.19;20818194;28;20307;-47
2023/12/18 03:51:05;;;;;;;11.40;8.75;;;;;;;22.74;63.57;102120.38;20833966;28;20204;-51
2023/12/18 04:01:07;;;;;;;11.85;8.40;;;;;;;22.71;63.11;102098.34;20829922;28;20282;-49
2023/12/18 04:11:16;;;;;;;11.63;8.98;;;;;;;22.69;62.51;102101.50;20831175;28;20235;-48
2023/12/18 04:21:18;;;;;;;11.50;8.60;;;;;;;22.68;62.65;102116.00;20830533;28;20208;-47
2023/12/18 04:31:21;;;;;;;12.23;8.98;;;;;;;22.69;62.62;102126.19;20845269;28;20200;-46
2023/12/18 04:41:23;;;;;;;11.75;8.13;;;;;;;22.65;61.97;102128.84;20842149;28;20325;-52
2023/12/18 04:51:26;;;;;;;11.95;8.30;;;;;;;22.69;62.76;102129.88;20828522;28;20295;-49
2023/12/18 05:01:29;;;;;;;28.88;21.83;;;;;;;22.48;61.72;102137.16;20815427;28;20219;-43
2023/12/18 05:11:32;;;;;;;64.93;48.80;;;;;;;22.51;62.45;102136.53;20832657;28;20227;-51
2023/12/18 05:21:34;;;;;;;54.92;41.83;;;;;;;22.52;62.31;102135.38;20816673;28;20311;-48
2023/12/18 05:31:37;;;;;;;165.88;115.40;;;;;;;22.38;61.64;102128.91;20836541;28;20199;-43
2023/12/18 05:41:39;;;;;;;126.35;88.30;;;;;;;22.36;63.20;102125.53;20824817;28;20228;-50
2023/12/18 05:51:42;;;;;;;133.30;93.50;;;;;;;22.43;64.14;102117.44;20830770;28;20204;-48
2023/12/18 06:01:44;;;;;;;148.30;103.63;;;;;;;22.52;68.08;102107.00;20829329;28;20513;-44
2023/12/18 06:11:48;;;;;;;141.27;94.03;;;;;;;22.38;67.15;102109.88;20842817;28;20235;-41
2023/12/18 06:21:49;;;;;;;127.13;87.25;;;;;;;22.27;65.87;102116.09;20841107;28;20248;-53
2023/12/18 06:31:52;;;;;;;124.47;84.95;;;;;;;22.18;65.14;102121.69;20838599;28;20292;-43
2023/12/18 06:41:55;;;;;;;109.57;77.05;;;;;;;22.08;64.76;102119.91;20847330;28;20647;-41
2023/12/18 06:51:58;;;;;;;98.50;69.35;;;;;;;22.02;64.54;102117.50;20837683;28;20263;-49
2023/12/18 07:02:00;;;;;;;95.25;67.72;;;;;;;21.97;64.22;102104.22;20827045;28;20232;-45
2023/12/18 07:12:04;;;;;;;86.80;61.10;;;;;;;21.88;64.18;102097.63;20831642;28;20228;-41
2023/12/18 07:22:05;;;;;;;86.18;61.22;;;;;;;21.82;64.16;102124.38;20837616;28;20636;-40
2023/12/18 07:32:09;;;;;;;81.63;57.35;;;;;;;21.73;64.59;102138.47;20829517;28;20235;-42
2023/12/18 07:42:10;;;;;;;74.32;53.42;;;;;;;21.66;64.43;102137.19;20822557;28;20224;-46
2023/12/18 07:52:14;;;;;;;68.45;49.58;;;;;;;21.57;64.16;102125.72;20828160;28;20491;-48
2023/12/18 08:02:15;;;;;;;64.90;47.75;;;;;;;21.55;64.27;102133.69;20826930;28;20231;-41
2023/12/18 08:12:18;;;;;;;62.55;46.67;;;;;;;21.52;64.01;102120.19;20832499;28;20228;-41
2023/12/18 08:22:20;;;;;;;60.17;43.05;;;;;;;21.46;63.77;102134.75;20819782;28;20512;-41
2023/12/18 08:32:23;;;;;;;58.97;42.45;;;;;;;21.44;63.45;102125.72;20830211;28;20211;-40
2023/12/18 08:42:25;;;;;;;50.90;37.97;;;;;;;21.39;63.37;102107.69;20830912;28;20239;-49
2023/12/18 08:52:28;;;;;;;51.53;37.72;;;;;;;21.36;63.82;102096.13;20830930;28;20283;-41
2023/12/18 09:02:30;;;;;;;45.22;34.95;;;;;;;21.32;63.28;102103.56;20824549;28;20212;-41
2023/12/18 09:12:33;;;;;;;48.30;34.47;;;;;;;21.29;62.71;102096.53;20834260;28;20230;-43
2023/12/18 09:22:36;;;;;;;46.80;33.50;;;;;;;21.26;63.08;102102.81;20828151;28;20497;-42
2023/12/18 09:32:39;;;;;;;43.15;32.20;;;;;;;21.24;62.70;102102.28;20843660;28;20200;-42
2023/12/18 09:42:41;;;;;;;43.13;31.85;;;;;;;21.21;62.50;102085.91;20831032;28;20308;-42
2023/12/18 09:52:48;;;;;;;40.00;29.52;;;;;;;21.18;62.41;102083.66;20820954;28;20498;-41
2023/12/18 10:02:50;;;;;;;36.88;27.88;;;;;;;21.16;62.52;102080.31;20837651;28;20258;-41
2023/12/18 10:12:54;;;;;;;35.67;27.52;;;;;;;21.14;62.44;102082.63;20839179;28;20314;-41
2023/12/18 10:22:55;;;;;;;33.50;24.98;;;;;;;21.10;62.41;102084.41;20838603;28;20216;-41
2023/12/18 10:32:59;;;;;;;35.53;26.75;;;;;;;21.10;62.67;102080.72;20841159;28;20232;-41
2023/12/18 10:43:13;;;;;;;34.42;25.40;;;;;;;21.05;62.38;102059.00;20841635;28;20235;-41
2023/12/18 10:53:18;;;;;;;30.70;23.77;;;;;;;21.01;62.40;102049.47;20833528;28;20663;-41
2023/12/18 11:03:26;;;;;;;30.02;23.00;;;;;;;21.00;62.32;102042.13;20837760;28;20687;-42
2023/12/18 11:13:30;;;;;;;26.88;21.75;;;;;;;20.95;61.85;102005.41;20827798;28;20310;-43
2023/12/18 11:23:38;;;;;;;27.02;20.80;;;;;;;20.96;61.83;101996.63;20837418;28;20311;-40
2023/12/18 11:33:59;;;;;;;25.95;20.13;;;;;;;20.96;62.10;101992.94;20839206;28;20204;-41
2023/12/18 11:44:07;;;;;;;28.08;21.25;;;;;;;20.93;62.03;101988.75;20832482;28;20226;-41
2023/12/18 11:54:14;;;;;;;24.88;18.90;;;;;;;20.91;61.68;101984.53;20842866;28;20202;-40
2023/12/18 12:04:17;;;;;;;23.92;18.05;;;;;;;20.91;61.80;101976.03;20860569;28;20228;-42
2023/12/18 12:14:20;;;;;;;22.52;17.35;;;;;;;20.88;61.60;101960.56;20831911;28;20284;-40
2023/12/18 12:24:22;;;;;;;21.15;15.93;;;;;;;20.85;61.96;101943.34;20829987;28;20303;-40
2023/12/18 12:34:27;;;;;;;18.15;13.80;;;;;;;20.85;61.57;101960.34;20826195;28;20207;-41
2023/12/18 12:44:29;;;;;;;20.95;16.00;;;;;;;20.84;61.69;101955.81;20824965;28;20224;-41
2023/12/18 12:54:33;;;;;;;19.67;15.38;;;;;;;20.82;61.86;101955.28;20830108;28;20549;-40
2023/12/18 13:04:34;;;;;;;18.38;14.02;;;;;;;20.80;61.74;101940.59;20831404;28;20224;-41
2023/12/18 13:14:37;;;;;;;17.98;14.38;;;;;;;20.78;61.63;101920.25;20818075;28;20597;-50
2023/12/18 13:24:39;;;;;;;16.95;13.52;;;;;;;20.75;61.58;101926.56;20826297;28;20226;-41
2023/12/18 13:34:42;;;;;;;17.52;13.25;;;;;;;20.74;61.59;101896.59;20824523;28;20584;-49
2023/12/18 13:44:44;;;;;;;16.85;12.57;;;;;;;20.73;61.54;101890.09;20825101;28;20524;-41
2023/12/18 13:54:48;;;;;;;15.82;12.35;;;;;;;20.94;60.68;101871.56;20828910;28;20226;-47
2023/12/18 14:04:50;;;;;;;15.05;11.85;;;;;;;21.18;60.01;101871.31;20832776;28;20714;-43
2023/12/18 14:14:53;;;;;;;13.80;11.27;;;;;;;21.25;59.62;101873.78;20840302;28;20216;-40
2023/12/18 14:24:55;;;;;;;11.98;10.00;;;;;;;21.25;59.55;101877.44;20834177;28;20342;-52
2023/12/18 14:34:59;;;;;;;13.32;10.48;;;;;;;21.21;59.37;101848.09;20832659;28;20277;-41
2023/12/18 14:45:01;;;;;;;12.40;10.07;;;;;;;21.18;59.16;101843.00;20835188;28;20609;-42
2023/12/18 14:55:04;;;;;;;12.23;9.57;;;;;;;21.18;59.16;101839.34;20833748;28;20602;-41
2023/12/18 15:05:07;;;;;;;11.32;9.38;;;;;;;21.14;59.45;101827.00;20832765;28;20228;-42
2023/12/18 15:15:11;;;;;;;11.45;9.15;;;;;;;21.11;59.25;101817.13;20830904;28;20283;-41
2023/12/18 15:25:13;;;;;;;10.57;8.50;;;;;;;21.05;59.47;101829.72;20837885;28;20655;-42
2023/12/18 15:35:16;;;;;;;11.35;8.43;;;;;;;20.99;59.55;101854.47;20835576;28;20207;-44
2023/12/18 15:45:18;;;;;;;9.85;8.15;;;;;;;20.94;59.05;101836.75;20825525;28;20708;-49
2023/12/18 15:55:21;;;;;;;9.32;7.70;;;;;;;20.91;59.61;101851.53;20830389;28;20195;-42
2023/12/18 16:05:23;;;;;;;8.88;7.63;;;;;;;20.87;59.64;101850.50;20828238;28;20318;-44
2023/12/18 16:15:26;;;;;;;9.73;7.13;;;;;;;20.99;59.00;101805.53;20816175;28;20599;-45
2023/12/18 16:25:27;;;;;;;25.25;16.92;;;;;;;20.98;59.00;101781.19;20824058;28;20255;-43
2023/12/18 16:35:31;;;;;;;66.47;43.00;;;;;;;21.13;59.65;101780.03;20821263;28;20200;-40
2023/12/18 16:45:32;;;;;;;107.18;69.00;;;;;;;21.08;59.37;101772.47;20794039;28;20247;-43
2023/12/18 16:55:36;;;;;;;134.25;87.00;;;;;;;21.22;59.29;101750.66;20774438;28;20230;-42
2023/12/18 17:05:37;;;;;;;162.38;105.38;;;;;;;21.48;58.72;101730.22;20821611;28;20327;-50
2023/12/18 17:15:42;;;;;;;224.57;144.52;;;;;;;21.75;59.16;101733.75;20790852;28;20219;-40
2023/12/18 17:25:44;;;;;;;297.73;194.82;;;;;;;21.91;58.17;101733.34;20804791;28;20228;-39
2023/12/18 17:35:48;;;;;;;272.80;180.13;;;;;;;22.13;58.39;101702.13;20800383;28;20232;-46
2023/12/18 17:45:50;;;;;;;267.33;171.32;;;;;;;22.22;58.28;101688.81;20829005;28;20528;-49
2023/12/18 17:55:53;;;;;;;260.02;172.95;;;;;;;22.34;57.88;101708.03;20826531;28;20223;-48
2023/12/18 18:05:55;;;;;;;257.70;167.63;;;;;;;22.42;57.71;101725.13;20824746;28;20225;-39
2023/12/18 18:15:58;;;;;;;329.17;232.13;;;;;;;22.45;57.63;101737.81;20829845;28;20296;-40
2023/12/18 18:25:59;;;;;;;287.10;194.15;;;;;;;22.48;58.21;101730.63;20793957;28;20217;-38
2023/12/18 18:36:05;;;;;;;256.63;173.18;;;;;;;22.45;57.92;101687.59;20821951;28;20188;-48
2023/12/18 18:46:12;;;;;;;237.68;157.15;;;;;;;22.43;57.94;101694.75;20822157;28;20520;-51
2023/12/18 18:56:15;;;;;;;296.98;206.48;;;;;;;22.54;58.30;101683.94;20824781;28;20197;-51
2023/12/18 19:06:17;;;;;;;311.38;211.00;;;;;;;22.56;58.89;101690.94;20836957;28;20220;-39
2023/12/18 19:16:20;;;;;;;329.75;241.32;;;;;;;22.56;58.81;101670.25;20834579;28;20600;-48
2023/12/18 19:26:22;;;;;;;344.38;253.85;;;;;;;22.53;59.07;101677.41;20802382;28;20311;-54
2023/12/18 19:36:25;;;;;;;383.10;282.83;;;;;;;22.59;59.43;101676.06;20805645;28;20516;-38
2023/12/18 19:46:27;;;;;;;350.17;256.75;;;;;;;22.50;60.29;101644.03;20958110;22;20227;-35
2023/12/18 19:56:30;;;;;;;324.08;241.98;;;;;;;22.48;59.92;101620.81;20822589;28;20222;-37
2023/12/18 20:06:32;;;;;;;346.83;257.73;;;;;;;22.49;58.48;101659.38;20868373;28;20224;-35
2023/12/18 20:16:35;;;;;;;312.70;227.30;;;;;;;22.26;58.54;101637.97;20877325;28;20658;-37
2023/12/18 20:26:37;;;;;;;292.65;201.90;;;;;;;22.14;59.35;101626.41;20896501;28;20322;-38
2023/12/18 20:36:40;;;;;;;239.65;165.48;;;;;;;22.07;59.78;101613.53;20896115;28;20656;-39
2023/12/18 20:46:42;;;;;;;215.57;144.93;;;;;;;22.03;60.06;101589.03;20885340;28;20558;-55
2023/12/18 20:56:45;;;;;;;188.48;131.40;;;;;;;21.95;59.66;101610.47;20857942;28;20224;-39
2023/12/18 21:06:47;;;;;;;156.20;108.53;;;;;;;21.88;60.42;101601.63;20805944;28;20310;-39
2023/12/18 21:16:50;;;;;;;230.15;160.90;;;;;;;22.13;59.49;101611.41;20861353;28;20220;-59
2023/12/18 21:26:52;;;;;;;257.80;188.50;;;;;;;22.20;59.11;101589.06;20839684;28;20350;-43
2023/12/18 21:36:55;;;;;;;255.38;183.75;;;;;;;22.18;58.85;101601.91;20861929;28;20209;-53
2023/12/18 21:46:57;;;;;;;238.95;178.88;;;;;;;22.17;58.07;101586.06;20876647;28;20534;-56
2023/12/18 21:57:00;;;;;;;223.07;160.20;;;;;;;22.14;57.81;101561.22;20854742;28;20292;-37
2023/12/18 22:07:01;;;;;;;206.23;147.35;;;;;;;22.10;58.24;101533.50;20865120;28;20633;-44
2023/12/18 22:17:05;;;;;;;188.85;136.65;;;;;;;22.08;58.45;101558.50;20862760;28;20287;-57
2023/12/18 22:27:06;;;;;;;167.50;122.15;;;;;;;22.02;58.07;101534.34;20863449;28;20567;-39
2023/12/18 22:37:11;;;;;;;156.00;112.28;;;;;;;21.93;57.53;101513.63;20899078;28;20214;-38
2023/12/18 22:47:13;;;;;;;142.07;103.60;;;;;;;21.84;57.56;101494.91;20881712;28;20281;-37
2023/12/18 22:57:16;;;;;;;129.40;94.07;;;;;;;21.80;57.47;101503.25;20876128;28;20204;-41
2023/12/18 23:07:18;;;;;;;119.28;87.28;;;;;;;21.75;57.66;101531.72;20882089;28;20247;-38
2023/12/18 23:17:21;;;;;;;106.60;76.78;;;;;;;21.71;57.32;101536.38;20886964;28;20577;-40
2023/12/18 23:27:22;;;;;;;92.80;66.78;;;;;;;21.66;57.10;101514.72;20880770;28;20319;-38
2023/12/18 23:37:25;;;;;;;87.80;61.67;;;;;;;21.63;57.45;101494.69;20873669;28;20283;-40
2023/12/18 23:47:27;;;;;;;79.97;57.65;;;;;;;21.60;57.30;101475.50;20868816;28;20242;-38
2023/12/18 23:57:30;;;;;;;72.40;52.08;;;;;;;21.59;57.49;101471.00;20892591;28;20279;-39
